sensor_id;sensor_type;location;lat;lon;timestamp;P1;durP1;ratioP1;P2;durP2;ratioP2
8177;SDS011;4130;48.740;9.132;2023-01-31T00:00:51;5.27;;;2.50;;
8177;SDS011;4130;48.740;9.132;2023-01-31T00:03:18;5.80;;;3.10;;
8177;SDS011;4130;48.740;9.132;2023-01-31T00:05:44;3.03;;;1.93;;
8177;SDS011;4130;48.740;9.132;2023-01-31T00:08:11;4.43;;;2.40;;
8177;SDS011;4130;48.740;9.132;2023-01-31T00:10:40;6.83;;;2.67;;
8177;SDS011;4130;48.740;9.132;2023-01-31T00:13:07;4.10;;;2.77;;
8177;SDS011;4130;48.740;9.132;2023-01-31T00:15:34;4.47;;;2.40;;
8177;SDS011;4130;48.740;9.132;2023-01-31T00:18:00;5.67;;;2.43;;
8177;SDS011;4130;48.740;9.132;2023-01-31T00:20:27;3.27;;;2.20;;
8177;SDS011;4130;48.740;9.132;2023-01-31T00:22:54;6.30;;;2.43;;
8177;SDS011;4130;48.740;9.132;2023-01-31T00:25:21;3.70;;;2.67;;
8177;SDS011;4130;48.740;9.132;2023-01-31T00:27:49;4.43;;;2.70;;
8177;SDS011;4130;48.740;9.132;2023-01-31T00:30:16;5.87;;;2.53;;
8177;SDS011;4130;48.740;9.132;2023-01-31T00:32:43;4.03;;;2.47;;
8177;SDS011;4130;48.740;9.132;2023-01-31T00:35:09;5.47;;;2.30;;
8177;SDS011;4130;48.740;9.132;2023-01-31T00:37:36;4.17;;;2.40;;
8177;SDS011;4130;48.740;9.132;2023-01-31T00:40:03;5.77;;;2.80;;
8177;SDS011;4130;48.740;9.132;2023-01-31T00:42:31;2.83;;;2.20;;
8177;SDS011;4130;48.740;9.132;2023-01-31T00:44:59;4.40;;;2.20;;
8177;SDS011;4130;48.740;9.132;2023-01-31T00:47:27;5.40;;;2.80;;
8177;SDS011;4130;48.740;9.132;2023-01-31T00:49:54;3.87;;;1.80;;
8177;SDS011;4130;48.740;9.132;2023-01-31T00:52:22;4.03;;;2.53;;
8177;SDS011;4130;48.740;9.132;2023-01-31T00:54:49;4.17;;;2.70;;
8177;SDS011;4130;48.740;9.132;2023-01-31T00:57:16;4.13;;;2.67;;
8177;SDS011;4130;48.740;9.132;2023-01-31T00:59:43;6.43;;;2.43;;
8177;SDS011;4130;48.740;9.132;2023-01-31T01:02:12;2.40;;;1.90;;
8177;SDS011;4130;48.740;9.132;2023-01-31T01:04:39;3.47;;;2.10;;
8177;SDS011;4130;48.740;9.132;2023-01-31T01:07:06;5.43;;;2.70;;
8177;SDS011;4130;48.740;9.132;2023-01-31T01:09:33;3.90;;;2.40;;
8177;SDS011;4130;48.740;9.132;2023-01-31T01:11:59;5.93;;;2.70;;
8177;SDS011;4130;48.740;9.132;2023-01-31T01:14:26;3.33;;;2.13;;
8177;SDS011;4130;48.740;9.132;2023-01-31T01:16:53;2.93;;;2.30;;
8177;SDS011;4130;48.740;9.132;2023-01-31T01:19:23;4.87;;;2.90;;
8177;SDS011;4130;48.740;9.132;2023-01-31T01:21:50;6.50;;;2.37;;
8177;SDS011;4130;48.740;9.132;2023-01-31T01:24:19;5.07;;;2.30;;
8177;SDS011;4130;48.740;9.132;2023-01-31T01:26:47;3.33;;;2.50;;
8177;SDS011;4130;48.740;9.132;2023-01-31T01:29:14;5.50;;;2.37;;
8177;SDS011;4130;48.740;9.132;2023-01-31T01:31:40;5.90;;;2.30;;
8177;SDS011;4130;48.740;9.132;2023-01-31T01:34:07;2.40;;;2.20;;
8177;SDS011;4130;48.740;9.132;2023-01-31T01:36:38;2.77;;;2.47;;
8177;SDS011;4130;48.740;9.132;2023-01-31T01:39:09;6.07;;;2.90;;
8177;SDS011;4130;48.740;9.132;2023-01-31T01:41:38;3.47;;;2.17;;
8177;SDS011;4130;48.740;9.132;2023-01-31T01:47:09;2.80;;;2.00;;
8177;SDS011;4130;48.740;9.132;2023-01-31T01:49:50;3.63;;;2.10;;
8177;SDS011;4130;48.740;9.132;2023-01-31T01:52:21;8.97;;;2.90;;
8177;SDS011;4130;48.740;9.132;2023-01-31T01:54:49;5.30;;;2.70;;
8177;SDS011;4130;48.740;9.132;2023-01-31T01:57:20;2.73;;;2.17;;
8177;SDS011;4130;48.740;9.132;2023-01-31T01:59:49;5.23;;;2.47;;
8177;SDS011;4130;48.740;9.132;2023-01-31T02:02:19;3.90;;;2.47;;
8177;SDS011;4130;48.740;9.132;2023-01-31T02:04:46;6.57;;;2.30;;
8177;SDS011;4130;48.740;9.132;2023-01-31T02:07:15;2.60;;;2.20;;
8177;SDS011;4130;48.740;9.132;2023-01-31T02:09:47;3.73;;;2.30;;
8177;SDS011;4130;48.740;9.132;2023-01-31T02:12:18;4.10;;;2.47;;
8177;SDS011;4130;48.740;9.132;2023-01-31T02:14:45;5.27;;;2.47;;
8177;SDS011;4130;48.740;9.132;2023-01-31T02:17:14;4.87;;;2.40;;
8177;SDS011;4130;48.740;9.132;2023-01-31T02:19:45;4.43;;;2.47;;
8177;SDS011;4130;48.740;9.132;2023-01-31T02:22:22;6.27;;;2.60;;
8177;SDS011;4130;48.740;9.132;2023-01-31T02:27:59;2.50;;;1.77;;
8177;SDS011;4130;48.740;9.132;2023-01-31T02:31:02;2.83;;;2.00;;
8177;SDS011;4130;48.740;9.132;2023-01-31T02:34:07;2.90;;;2.10;;
8177;SDS011;4130;48.740;9.132;2023-01-31T02:36:41;4.30;;;1.97;;
8177;SDS011;4130;48.740;9.132;2023-01-31T02:39:19;3.00;;;1.87;;
8177;SDS011;4130;48.740;9.132;2023-01-31T02:41:54;2.10;;;1.90;;
8177;SDS011;4130;48.740;9.132;2023-01-31T02:44:27;4.47;;;2.20;;
8177;SDS011;4130;48.740;9.132;2023-01-31T02:47:18;3.10;;;2.10;;
8177;SDS011;4130;48.740;9.132;2023-01-31T02:49:55;3.33;;;2.10;;
8177;SDS011;4130;48.740;9.132;2023-01-31T02:52:28;2.20;;;1.77;;
8177;SDS011;4130;48.740;9.132;2023-01-31T02:55:05;5.00;;;2.27;;
8177;SDS011;4130;48.740;9.132;2023-01-31T02:57:56;5.67;;;2.30;;
8177;SDS011;4130;48.740;9.132;2023-01-31T03:00:25;4.87;;;2.37;;
8177;SDS011;4130;48.740;9.132;2023-01-31T03:02:54;5.73;;;2.43;;
8177;SDS011;4130;48.740;9.132;2023-01-31T03:05:22;3.03;;;2.30;;
8177;SDS011;4130;48.740;9.132;2023-01-31T03:07:50;4.53;;;2.33;;
8177;SDS011;4130;48.740;9.132;2023-01-31T03:10:29;4.07;;;2.20;;
8177;SDS011;4130;48.740;9.132;2023-01-31T03:13:09;4.13;;;2.13;;
8177;SDS011;4130;48.740;9.132;2023-01-31T03:15:47;4.77;;;2.43;;
8177;SDS011;4130;48.740;9.132;2023-01-31T03:18:43;2.23;;;1.80;;
8177;SDS011;4130;48.740;9.132;2023-01-31T03:21:19;6.10;;;3.10;;
8177;SDS011;4130;48.740;9.132;2023-01-31T03:23:52;2.83;;;2.20;;
8177;SDS011;4130;48.740;9.132;2023-01-31T03:26:22;3.13;;;2.63;;
8177;SDS011;4130;48.740;9.132;2023-01-31T03:28:51;3.70;;;2.47;;
8177;SDS011;4130;48.740;9.132;2023-01-31T03:31:22;5.47;;;2.43;;
8177;SDS011;4130;48.740;9.132;2023-01-31T03:33:51;3.53;;;2.13;;
8177;SDS011;4130;48.740;9.132;2023-01-31T03:36:27;4.30;;;2.57;;
8177;SDS011;4130;48.740;9.132;2023-01-31T03:39:02;3.97;;;2.40;;
8177;SDS011;4130;48.740;9.132;2023-01-31T03:41:38;3.53;;;2.17;;
8177;SDS011;4130;48.740;9.132;2023-01-31T03:44:11;5.97;;;3.00;;
8177;SDS011;4130;48.740;9.132;2023-01-31T03:46:43;6.40;;;2.60;;
8177;SDS011;4130;48.740;9.132;2023-01-31T03:49:14;7.60;;;2.23;;
8177;SDS011;4130;48.740;9.132;2023-01-31T03:51:47;6.57;;;2.67;;
8177;SDS011;4130;48.740;9.132;2023-01-31T03:54:20;8.47;;;3.17;;
8177;SDS011;4130;48.740;9.132;2023-01-31T03:56:51;5.23;;;2.33;;
8177;SDS011;4130;48.740;9.132;2023-01-31T03:59:22;3.67;;;2.27;;
8177;SDS011;4130;48.740;9.132;2023-01-31T04:01:52;3.50;;;2.10;;
8177;SDS011;4130;48.740;9.132;2023-01-31T04:04:22;3.27;;;2.03;;
8177;SDS011;4130;48.740;9.132;2023-01-31T04:06:54;3.60;;;2.43;;
8177;SDS011;4130;48.740;9.132;2023-01-31T04:09:21;4.70;;;2.67;;
8177;SDS011;4130;48.740;9.132;2023-01-31T04:11:48;4.93;;;2.30;;
8177;SDS011;4130;48.740;9.132;2023-01-31T04:14:15;4.13;;;2.40;;
8177;SDS011;4130;48.740;9.132;2023-01-31T04:16:43;4.67;;;2.57;;
8177;SDS011;4130;48.740;9.132;2023-01-31T04:19:10;5.70;;;2.30;;
8177;SDS011;4130;48.740;9.132;2023-01-31T04:21:37;2.93;;;2.30;;
8177;SDS011;4130;48.740;9.132;2023-01-31T04:24:05;4.20;;;2.40;;
8177;SDS011;4130;48.740;9.132;2023-01-31T04:26:33;2.63;;;1.77;;
8177;SDS011;4130;48.740;9.132;2023-01-31T04:29:00;5.30;;;2.17;;
8177;SDS011;4130;48.740;9.132;2023-01-31T04:31:27;4.83;;;2.67;;
8177;SDS011;4130;48.740;9.132;2023-01-31T04:33:53;3.57;;;2.17;;
8177;SDS011;4130;48.740;9.132;2023-01-31T04:36:22;3.00;;;2.10;;
8177;SDS011;4130;48.740;9.132;2023-01-31T04:38:48;6.57;;;2.40;;
8177;SDS011;4130;48.740;9.132;2023-01-31T04:41:17;5.47;;;2.63;;
8177;SDS011;4130;48.740;9.132;2023-01-31T04:43:43;5.23;;;2.30;;
8177;SDS011;4130;48.740;9.132;2023-01-31T04:46:10;3.37;;;2.60;;
8177;SDS011;4130;48.740;9.132;2023-01-31T04:48:37;3.37;;;2.20;;
8177;SDS011;4130;48.740;9.132;2023-01-31T04:51:05;3.13;;;2.43;;
8177;SDS011;4130;48.740;9.132;2023-01-31T04:53:32;2.43;;;2.10;;
8177;SDS011;4130;48.740;9.132;2023-01-31T04:55:59;4.00;;;2.37;;
8177;SDS011;4130;48.740;9.132;2023-01-31T04:58:27;2.47;;;2.20;;
8177;SDS011;4130;48.740;9.132;2023-01-31T05:00:54;3.90;;;2.40;;
8177;SDS011;4130;48.740;9.132;2023-01-31T05:03:21;5.43;;;2.50;;
8177;SDS011;4130;48.740;9.132;2023-01-31T05:05:47;4.70;;;2.43;;
8177;SDS011;4130;48.740;9.132;2023-01-31T05:08:14;9.70;;;3.03;;
8177;SDS011;4130;48.740;9.132;2023-01-31T05:10:41;4.07;;;2.13;;
8177;SDS011;4130;48.740;9.132;2023-01-31T05:13:08;3.00;;;2.37;;
8177;SDS011;4130;48.740;9.132;2023-01-31T05:15:38;2.80;;;2.27;;
8177;SDS011;4130;48.740;9.132;2023-01-31T05:18:05;4.97;;;2.53;;
8177;SDS011;4130;48.740;9.132;2023-01-31T05:20:32;3.97;;;2.50;;
8177;SDS011;4130;48.740;9.132;2023-01-31T05:23:03;3.90;;;2.23;;
8177;SDS011;4130;48.740;9.132;2023-01-31T05:25:31;2.30;;;2.00;;
8177;SDS011;4130;48.740;9.132;2023-01-31T05:27:58;4.70;;;2.90;;
8177;SDS011;4130;48.740;9.132;2023-01-31T05:30:25;6.93;;;2.97;;
8177;SDS011;4130;48.740;9.132;2023-01-31T05:32:53;6.87;;;2.60;;
8177;SDS011;4130;48.740;9.132;2023-01-31T05:35:20;4.50;;;2.37;;
8177;SDS011;4130;48.740;9.132;2023-01-31T05:37:46;3.73;;;2.43;;
8177;SDS011;4130;48.740;9.132;2023-01-31T05:40:14;7.23;;;2.60;;
8177;SDS011;4130;48.740;9.132;2023-01-31T05:42:42;5.77;;;2.50;;
8177;SDS011;4130;48.740;9.132;2023-01-31T05:45:10;4.57;;;2.30;;
8177;SDS011;4130;48.740;9.132;2023-01-31T05:47:37;6.27;;;2.30;;
8177;SDS011;4130;48.740;9.132;2023-01-31T05:50:06;2.30;;;2.10;;
8177;SDS011;4130;48.740;9.132;2023-01-31T05:52:34;2.37;;;2.17;;
8177;SDS011;4130;48.740;9.132;2023-01-31T05:55:01;3.13;;;2.63;;
8177;SDS011;4130;48.740;9.132;2023-01-31T05:57:27;3.37;;;2.30;;
8177;SDS011;4130;48.740;9.132;2023-01-31T05:59:54;2.43;;;2.00;;
8177;SDS011;4130;48.740;9.132;2023-01-31T06:02:21;2.00;;;1.90;;
8177;SDS011;4130;48.740;9.132;2023-01-31T06:04:48;2.50;;;1.87;;
8177;SDS011;4130;48.740;9.132;2023-01-31T06:07:17;4.07;;;2.50;;
8177;SDS011;4130;48.740;9.132;2023-01-31T06:09:44;4.00;;;2.20;;
8177;SDS011;4130;48.740;9.132;2023-01-31T06:12:11;3.00;;;2.03;;
8177;SDS011;4130;48.740;9.132;2023-01-31T06:14:39;2.13;;;1.87;;
8177;SDS011;4130;48.740;9.132;2023-01-31T06:17:06;3.07;;;2.50;;
8177;SDS011;4130;48.740;9.132;2023-01-31T06:19:33;3.10;;;2.07;;
8177;SDS011;4130;48.740;9.132;2023-01-31T06:21:59;3.73;;;2.07;;
8177;SDS011;4130;48.740;9.132;2023-01-31T06:24:28;4.30;;;2.10;;
8177;SDS011;4130;48.740;9.132;2023-01-31T06:26:54;5.90;;;2.20;;
8177;SDS011;4130;48.740;9.132;2023-01-31T06:29:21;3.00;;;2.13;;
8177;SDS011;4130;48.740;9.132;2023-01-31T06:31:48;4.30;;;2.20;;
8177;SDS011;4130;48.740;9.132;2023-01-31T06:34:15;7.50;;;2.50;;
8177;SDS011;4130;48.740;9.132;2023-01-31T06:36:42;2.83;;;2.20;;
8177;SDS011;4130;48.740;9.132;2023-01-31T06:39:12;3.70;;;2.37;;
8177;SDS011;4130;48.740;9.132;2023-01-31T06:41:40;2.97;;;2.33;;
8177;SDS011;4130;48.740;9.132;2023-01-31T06:44:07;2.83;;;2.17;;
8177;SDS011;4130;48.740;9.132;2023-01-31T06:46:35;3.63;;;2.10;;
8177;SDS011;4130;48.740;9.132;2023-01-31T06:49:02;3.47;;;2.73;;
8177;SDS011;4130;48.740;9.132;2023-01-31T06:51:33;2.40;;;2.10;;
8177;SDS011;4130;48.740;9.132;2023-01-31T06:54:00;2.80;;;2.20;;
8177;SDS011;4130;48.740;9.132;2023-01-31T06:56:26;3.03;;;2.13;;
8177;SDS011;4130;48.740;9.132;2023-01-31T06:58:55;3.73;;;2.23;;
8177;SDS011;4130;48.740;9.132;2023-01-31T07:01:21;3.37;;;2.03;;
8177;SDS011;4130;48.740;9.132;2023-01-31T07:03:48;3.30;;;2.37;;
8177;SDS011;4130;48.740;9.132;2023-01-31T07:06:15;2.80;;;2.47;;
8177;SDS011;4130;48.740;9.132;2023-01-31T07:08:44;2.60;;;2.40;;
8177;SDS011;4130;48.740;9.132;2023-01-31T07:11:11;4.47;;;2.20;;
8177;SDS011;4130;48.740;9.132;2023-01-31T07:13:38;4.63;;;2.40;;
8177;SDS011;4130;48.740;9.132;2023-01-31T07:16:07;3.10;;;2.60;;
8177;SDS011;4130;48.740;9.132;2023-01-31T07:18:33;6.10;;;2.57;;
8177;SDS011;4130;48.740;9.132;2023-01-31T07:21:00;5.03;;;3.03;;
8177;SDS011;4130;48.740;9.132;2023-01-31T07:23:27;4.33;;;2.70;;
8177;SDS011;4130;48.740;9.132;2023-01-31T07:25:54;4.73;;;2.70;;
8177;SDS011;4130;48.740;9.132;2023-01-31T07:28:20;3.93;;;2.50;;
8177;SDS011;4130;48.740;9.132;2023-01-31T07:30:47;4.77;;;2.87;;
8177;SDS011;4130;48.740;9.132;2023-01-31T07:33:17;4.03;;;2.93;;
8177;SDS011;4130;48.740;9.132;2023-01-31T07:35:43;5.07;;;2.60;;
8177;SDS011;4130;48.740;9.132;2023-01-31T07:38:10;5.63;;;2.90;;
8177;SDS011;4130;48.740;9.132;2023-01-31T07:40:37;5.20;;;3.13;;
8177;SDS011;4130;48.740;9.132;2023-01-31T07:43:05;11.10;;;3.60;;
8177;SDS011;4130;48.740;9.132;2023-01-31T07:45:31;5.97;;;3.03;;
8177;SDS011;4130;48.740;9.132;2023-01-31T07:47:58;6.70;;;2.83;;
8177;SDS011;4130;48.740;9.132;2023-01-31T07:50:26;8.13;;;3.00;;
8177;SDS011;4130;48.740;9.132;2023-01-31T07:52:53;3.33;;;2.70;;
8177;SDS011;4130;48.740;9.132;2023-01-31T07:55:22;4.97;;;2.50;;
8177;SDS011;4130;48.740;9.132;2023-01-31T07:57:49;5.27;;;2.97;;
8177;SDS011;4130;48.740;9.132;2023-01-31T08:00:16;6.57;;;2.40;;
8177;SDS011;4130;48.740;9.132;2023-01-31T08:03:01;5.47;;;3.00;;
8177;SDS011;4130;48.740;9.132;2023-01-31T08:05:46;7.73;;;3.03;;
8177;SDS011;4130;48.740;9.132;2023-01-31T08:08:13;5.77;;;2.70;;
8177;SDS011;4130;48.740;9.132;2023-01-31T08:10:40;5.17;;;3.13;;
8177;SDS011;4130;48.740;9.132;2023-01-31T08:13:07;4.60;;;2.60;;
8177;SDS011;4130;48.740;9.132;2023-01-31T08:15:35;5.23;;;2.50;;
8177;SDS011;4130;48.740;9.132;2023-01-31T08:18:05;7.03;;;2.87;;
8177;SDS011;4130;48.740;9.132;2023-01-31T08:20:32;5.67;;;3.00;;
8177;SDS011;4130;48.740;9.132;2023-01-31T08:23:03;5.23;;;3.40;;
8177;SDS011;4130;48.740;9.132;2023-01-31T08:25:30;9.87;;;3.63;;
8177;SDS011;4130;48.740;9.132;2023-01-31T08:27:57;6.50;;;3.30;;
8177;SDS011;4130;48.740;9.132;2023-01-31T08:30:24;7.03;;;3.07;;
8177;SDS011;4130;48.740;9.132;2023-01-31T08:32:51;8.37;;;3.60;;
8177;SDS011;4130;48.740;9.132;2023-01-31T08:35:18;6.57;;;3.20;;
8177;SDS011;4130;48.740;9.132;2023-01-31T08:37:45;5.33;;;3.03;;
8177;SDS011;4130;48.740;9.132;2023-01-31T08:40:14;7.33;;;3.17;;
8177;SDS011;4130;48.740;9.132;2023-01-31T08:42:41;5.60;;;3.17;;
8177;SDS011;4130;48.740;9.132;2023-01-31T08:45:10;11.07;;;3.80;;
8177;SDS011;4130;48.740;9.132;2023-01-31T08:47:37;6.73;;;4.10;;
8177;SDS011;4130;48.740;9.132;2023-01-31T08:50:04;11.73;;;4.37;;
8177;SDS011;4130;48.740;9.132;2023-01-31T08:52:32;8.17;;;3.37;;
8177;SDS011;4130;48.740;9.132;2023-01-31T08:54:59;8.53;;;3.40;;
8177;SDS011;4130;48.740;9.132;2023-01-31T08:57:28;6.90;;;4.07;;
8177;SDS011;4130;48.740;9.132;2023-01-31T08:59:55;4.73;;;3.13;;
8177;SDS011;4130;48.740;9.132;2023-01-31T09:02:22;11.63;;;3.73;;
8177;SDS011;4130;48.740;9.132;2023-01-31T09:04:54;5.47;;;3.13;;
8177;SDS011;4130;48.740;9.132;2023-01-31T09:07:21;9.67;;;2.63;;
8177;SDS011;4130;48.740;9.132;2023-01-31T09:09:48;6.70;;;2.90;;
8177;SDS011;4130;48.740;9.132;2023-01-31T09:12:16;5.47;;;2.87;;
8177;SDS011;4130;48.740;9.132;2023-01-31T09:14:44;6.93;;;2.80;;
8177;SDS011;4130;48.740;9.132;2023-01-31T09:17:11;6.37;;;2.50;;
8177;SDS011;4130;48.740;9.132;2023-01-31T09:19:38;5.80;;;2.70;;
8177;SDS011;4130;48.740;9.132;2023-01-31T09:22:05;2.60;;;2.17;;
8177;SDS011;4130;48.740;9.132;2023-01-31T09:24:32;8.87;;;2.67;;
8177;SDS011;4130;48.740;9.132;2023-01-31T09:26:58;7.33;;;2.47;;
8177;SDS011;4130;48.740;9.132;2023-01-31T09:29:25;5.27;;;2.67;;
8177;SDS011;4130;48.740;9.132;2023-01-31T09:31:55;5.37;;;2.30;;
8177;SDS011;4130;48.740;9.132;2023-01-31T09:34:22;3.30;;;2.40;;
8177;SDS011;4130;48.740;9.132;2023-01-31T09:36:49;6.03;;;2.30;;
8177;SDS011;4130;48.740;9.132;2023-01-31T09:39:16;8.20;;;2.53;;
8177;SDS011;4130;48.740;9.132;2023-01-31T09:41:43;3.20;;;2.10;;
8177;SDS011;4130;48.740;9.132;2023-01-31T09:44:14;5.10;;;2.20;;
8177;SDS011;4130;48.740;9.132;2023-01-31T09:46:46;7.50;;;2.50;;
8177;SDS011;4130;48.740;9.132;2023-01-31T09:49:21;5.23;;;2.80;;
8177;SDS011;4130;48.740;9.132;2023-01-31T09:51:52;2.80;;;2.07;;
8177;SDS011;4130;48.740;9.132;2023-01-31T09:54:24;6.20;;;2.20;;
8177;SDS011;4130;48.740;9.132;2023-01-31T09:56:58;4.07;;;2.60;;
8177;SDS011;4130;48.740;9.132;2023-01-31T09:59:32;9.20;;;2.73;;
8177;SDS011;4130;48.740;9.132;2023-01-31T10:02:13;7.07;;;2.03;;
8177;SDS011;4130;48.740;9.132;2023-01-31T10:04:59;5.27;;;2.40;;
8177;SDS011;4130;48.740;9.132;2023-01-31T10:07:35;4.17;;;2.10;;
8177;SDS011;4130;48.740;9.132;2023-01-31T10:10:10;9.83;;;2.50;;
8177;SDS011;4130;48.740;9.132;2023-01-31T10:12:44;7.93;;;2.23;;
8177;SDS011;4130;48.740;9.132;2023-01-31T10:15:15;7.13;;;2.57;;
8177;SDS011;4130;48.740;9.132;2023-01-31T10:17:52;7.83;;;2.47;;
8177;SDS011;4130;48.740;9.132;2023-01-31T10:20:28;3.60;;;2.10;;
8177;SDS011;4130;48.740;9.132;2023-01-31T10:23:02;6.57;;;3.40;;
8177;SDS011;4130;48.740;9.132;2023-01-31T10:25:33;3.73;;;2.20;;
8177;SDS011;4130;48.740;9.132;2023-01-31T10:28:05;3.70;;;2.30;;
8177;SDS011;4130;48.740;9.132;2023-01-31T10:30:38;5.03;;;2.10;;
8177;SDS011;4130;48.740;9.132;2023-01-31T10:33:09;8.43;;;2.63;;
8177;SDS011;4130;48.740;9.132;2023-01-31T10:35:48;5.30;;;2.50;;
8177;SDS011;4130;48.740;9.132;2023-01-31T10:38:18;3.67;;;1.97;;
8177;SDS011;4130;48.740;9.132;2023-01-31T10:40:50;6.47;;;2.30;;
8177;SDS011;4130;48.740;9.132;2023-01-31T10:43:26;3.13;;;1.83;;
8177;SDS011;4130;48.740;9.132;2023-01-31T10:45:58;4.83;;;1.73;;
8177;SDS011;4130;48.740;9.132;2023-01-31T10:48:27;7.17;;;2.40;;
8177;SDS011;4130;48.740;9.132;2023-01-31T10:51:02;4.33;;;1.80;;
8177;SDS011;4130;48.740;9.132;2023-01-31T10:53:42;5.97;;;2.70;;
8177;SDS011;4130;48.740;9.132;2023-01-31T10:56:19;4.80;;;1.97;;
8177;SDS011;4130;48.740;9.132;2023-01-31T10:58:53;4.63;;;1.90;;
8177;SDS011;4130;48.740;9.132;2023-01-31T11:01:22;5.47;;;2.10;;
8177;SDS011;4130;48.740;9.132;2023-01-31T11:03:49;3.97;;;1.90;;
8177;SDS011;4130;48.740;9.132;2023-01-31T11:06:19;4.07;;;2.13;;
8177;SDS011;4130;48.740;9.132;2023-01-31T11:08:47;6.57;;;1.83;;
8177;SDS011;4130;48.740;9.132;2023-01-31T11:11:17;2.77;;;1.77;;
8177;SDS011;4130;48.740;9.132;2023-01-31T11:13:56;5.80;;;2.10;;
8177;SDS011;4130;48.740;9.132;2023-01-31T11:16:24;4.60;;;1.97;;
8177;SDS011;4130;48.740;9.132;2023-01-31T11:18:55;3.87;;;1.87;;
8177;SDS011;4130;48.740;9.132;2023-01-31T11:21:26;2.43;;;1.70;;
8177;SDS011;4130;48.740;9.132;2023-01-31T11:23:57;6.40;;;1.90;;
8177;SDS011;4130;48.740;9.132;2023-01-31T11:26:28;3.07;;;1.87;;
8177;SDS011;4130;48.740;9.132;2023-01-31T11:28:56;2.90;;;1.90;;
8177;SDS011;4130;48.740;9.132;2023-01-31T11:31:26;6.50;;;1.93;;
8177;SDS011;4130;48.740;9.132;2023-01-31T11:33:56;3.83;;;2.17;;
8177;SDS011;4130;48.740;9.132;2023-01-31T11:36:26;3.57;;;1.77;;
8177;SDS011;4130;48.740;9.132;2023-01-31T11:38:58;5.33;;;2.13;;
8177;SDS011;4130;48.740;9.132;2023-01-31T11:41:26;3.17;;;1.80;;
8177;SDS011;4130;48.740;9.132;2023-01-31T11:46:42;2.40;;;1.63;;
8177;SDS011;4130;48.740;9.132;2023-01-31T11:49:17;2.70;;;1.87;;
8177;SDS011;4130;48.740;9.132;2023-01-31T11:51:54;4.33;;;1.60;;
8177;SDS011;4130;48.740;9.132;2023-01-31T11:54:23;3.40;;;1.80;;
8177;SDS011;4130;48.740;9.132;2023-01-31T11:56:52;4.50;;;1.53;;
8177;SDS011;4130;48.740;9.132;2023-01-31T11:59:21;2.07;;;1.80;;
8177;SDS011;4130;48.740;9.132;2023-01-31T12:01:51;8.10;;;2.10;;
8177;SDS011;4130;48.740;9.132;2023-01-31T12:04:20;3.57;;;2.10;;
8177;SDS011;4130;48.740;9.132;2023-01-31T12:06:58;2.07;;;1.60;;
8177;SDS011;4130;48.740;9.132;2023-01-31T12:09:27;4.13;;;1.50;;
8177;SDS011;4130;48.740;9.132;2023-01-31T12:11:57;4.73;;;1.93;;
8177;SDS011;4130;48.740;9.132;2023-01-31T12:14:34;3.17;;;2.03;;
8177;SDS011;4130;48.740;9.132;2023-01-31T12:17:03;3.13;;;1.30;;
8177;SDS011;4130;48.740;9.132;2023-01-31T12:19:35;3.97;;;1.57;;
8177;SDS011;4130;48.740;9.132;2023-01-31T12:22:16;4.60;;;1.43;;
8177;SDS011;4130;48.740;9.132;2023-01-31T12:24:53;4.57;;;1.57;;
8177;SDS011;4130;48.740;9.132;2023-01-31T12:27:30;3.23;;;1.40;;
8177;SDS011;4130;48.740;9.132;2023-01-31T12:30:22;3.43;;;1.50;;
8177;SDS011;4130;48.740;9.132;2023-01-31T12:33:04;3.90;;;1.47;;
8177;SDS011;4130;48.740;9.132;2023-01-31T12:35:43;4.13;;;1.73;;
8177;SDS011;4130;48.740;9.132;2023-01-31T12:38:28;6.63;;;1.93;;
8177;SDS011;4130;48.740;9.132;2023-01-31T12:41:13;2.90;;;1.73;;
8177;SDS011;4130;48.740;9.132;2023-01-31T12:43:53;3.80;;;1.30;;
8177;SDS011;4130;48.740;9.132;2023-01-31T12:46:35;6.43;;;2.00;;
8177;SDS011;4130;48.740;9.132;2023-01-31T12:52:11;2.87;;;1.50;;
8177;SDS011;4130;48.740;9.132;2023-01-31T12:54:50;5.53;;;1.80;;
8177;SDS011;4130;48.740;9.132;2023-01-31T12:57:30;3.87;;;1.77;;
8177;SDS011;4130;48.740;9.132;2023-01-31T13:00:11;2.80;;;1.37;;
8177;SDS011;4130;48.740;9.132;2023-01-31T13:02:50;5.70;;;1.77;;
8177;SDS011;4130;48.740;9.132;2023-01-31T13:05:39;3.97;;;1.70;;
8177;SDS011;4130;48.740;9.132;2023-01-31T13:08:13;2.77;;;1.60;;
8177;SDS011;4130;48.740;9.132;2023-01-31T13:10:45;4.20;;;1.97;;
8177;SDS011;4130;48.740;9.132;2023-01-31T13:13:16;3.30;;;1.90;;
8177;SDS011;4130;48.740;9.132;2023-01-31T13:15:50;6.37;;;1.77;;
8177;SDS011;4130;48.740;9.132;2023-01-31T13:18:20;9.60;;;2.07;;
8177;SDS011;4130;48.740;9.132;2023-01-31T13:20:50;4.27;;;1.70;;
8177;SDS011;4130;48.740;9.132;2023-01-31T13:23:22;4.07;;;1.90;;
8177;SDS011;4130;48.740;9.132;2023-01-31T13:25:56;3.80;;;2.10;;
8177;SDS011;4130;48.740;9.132;2023-01-31T13:28:29;2.90;;;1.50;;
8177;SDS011;4130;48.740;9.132;2023-01-31T13:31:01;4.73;;;2.23;;
8177;SDS011;4130;48.740;9.132;2023-01-31T13:33:31;5.27;;;2.30;;
8177;SDS011;4130;48.740;9.132;2023-01-31T13:36:11;5.83;;;1.90;;
8177;SDS011;4130;48.740;9.132;2023-01-31T13:38:47;5.13;;;1.90;;
8177;SDS011;4130;48.740;9.132;2023-01-31T13:41:18;3.53;;;1.70;;
8177;SDS011;4130;48.740;9.132;2023-01-31T13:43:50;4.83;;;1.63;;
8177;SDS011;4130;48.740;9.132;2023-01-31T13:46:17;3.17;;;1.83;;
8177;SDS011;4130;48.740;9.132;2023-01-31T13:59:16;3.00;;;1.53;;
8177;SDS011;4130;48.740;9.132;2023-01-31T14:01:46;3.60;;;1.83;;
8177;SDS011;4130;48.740;9.132;2023-01-31T14:04:19;9.53;;;2.17;;
8177;SDS011;4130;48.740;9.132;2023-01-31T14:16:03;3.60;;;1.63;;
8177;SDS011;4130;48.740;9.132;2023-01-31T14:19:02;1.67;;;1.57;;
8177;SDS011;4130;48.740;9.132;2023-01-31T14:24:18;3.33;;;1.70;;
8177;SDS011;4130;48.740;9.132;2023-01-31T14:27:10;3.80;;;2.07;;
8177;SDS011;4130;48.740;9.132;2023-01-31T14:29:42;3.93;;;1.90;;
8177;SDS011;4130;48.740;9.132;2023-01-31T14:32:15;2.43;;;1.87;;
8177;SDS011;4130;48.740;9.132;2023-01-31T14:34:53;2.57;;;2.00;;
8177;SDS011;4130;48.740;9.132;2023-01-31T14:37:25;2.97;;;1.93;;
8177;SDS011;4130;48.740;9.132;2023-01-31T14:40:03;5.73;;;1.80;;
8177;SDS011;4130;48.740;9.132;2023-01-31T14:43:03;4.93;;;2.47;;
8177;SDS011;4130;48.740;9.132;2023-01-31T14:45:47;3.77;;;2.10;;
8177;SDS011;4130;48.740;9.132;2023-01-31T14:48:28;6.97;;;2.30;;
8177;SDS011;4130;48.740;9.132;2023-01-31T14:51:07;4.03;;;2.20;;
8177;SDS011;4130;48.740;9.132;2023-01-31T14:53:53;8.70;;;1.90;;
8177;SDS011;4130;48.740;9.132;2023-01-31T14:56:36;4.10;;;2.60;;
8177;SDS011;4130;48.740;9.132;2023-01-31T14:59:22;3.17;;;1.93;;
8177;SDS011;4130;48.740;9.132;2023-01-31T15:01:57;5.10;;;2.10;;
8177;SDS011;4130;48.740;9.132;2023-01-31T15:04:26;2.03;;;1.70;;
8177;SDS011;4130;48.740;9.132;2023-01-31T15:06:54;4.00;;;2.23;;
8177;SDS011;4130;48.740;9.132;2023-01-31T15:09:26;4.10;;;2.10;;
8177;SDS011;4130;48.740;9.132;2023-01-31T15:12:02;3.47;;;2.03;;
8177;SDS011;4130;48.740;9.132;2023-01-31T15:14:34;3.97;;;2.13;;
8177;SDS011;4130;48.740;9.132;2023-01-31T15:17:09;6.43;;;2.20;;
8177;SDS011;4130;48.740;9.132;2023-01-31T15:19:43;4.43;;;1.80;;
8177;SDS011;4130;48.740;9.132;2023-01-31T15:22:15;4.47;;;2.20;;
8177;SDS011;4130;48.740;9.132;2023-01-31T15:24:44;4.67;;;1.80;;
8177;SDS011;4130;48.740;9.132;2023-01-31T15:27:14;3.23;;;1.80;;
8177;SDS011;4130;48.740;9.132;2023-01-31T15:29:47;5.77;;;2.00;;
8177;SDS011;4130;48.740;9.132;2023-01-31T15:32:21;4.30;;;2.00;;
8177;SDS011;4130;48.740;9.132;2023-01-31T15:34:55;5.40;;;1.90;;
8177;SDS011;4130;48.740;9.132;2023-01-31T15:37:28;4.07;;;2.00;;
8177;SDS011;4130;48.740;9.132;2023-01-31T15:39:59;2.83;;;1.97;;
8177;SDS011;4130;48.740;9.132;2023-01-31T15:42:30;4.43;;;2.23;;
8177;SDS011;4130;48.740;9.132;2023-01-31T15:45:14;1.93;;;1.73;;
8177;SDS011;4130;48.740;9.132;2023-01-31T15:47:59;3.87;;;2.37;;
8177;SDS011;4130;48.740;9.132;2023-01-31T15:50:29;3.97;;;2.20;;
8177;SDS011;4130;48.740;9.132;2023-01-31T15:53:00;3.70;;;2.20;;
8177;SDS011;4130;48.740;9.132;2023-01-31T15:55:29;2.10;;;1.90;;
8177;SDS011;4130;48.740;9.132;2023-01-31T15:57:57;2.73;;;2.13;;
8177;SDS011;4130;48.740;9.132;2023-01-31T16:00:27;4.90;;;2.40;;
8177;SDS011;4130;48.740;9.132;2023-01-31T16:02:56;4.67;;;2.03;;
8177;SDS011;4130;48.740;9.132;2023-01-31T16:05:26;3.37;;;1.93;;
8177;SDS011;4130;48.740;9.132;2023-01-31T16:07:56;3.23;;;2.03;;
8177;SDS011;4130;48.740;9.132;2023-01-31T16:10:24;4.43;;;1.93;;
8177;SDS011;4130;48.740;9.132;2023-01-31T16:15:28;3.10;;;2.00;;